Time;durP1;ratioP1;P1;durP2;ratioP2;P2;SDS_P1;SDS_P2;PMS_P1;PMS_P2;Temp;Humidity;BMP_temperature;BMP_pressure;BME280_temperature;BME280_humidity;BME280_pressure;Samples;Min_cycle;Max_cycle;Signal;HPM_P1;HPM_P2
2022/03/27 00:02:12;;;;;;;0.00;0.00;;;;;;;13.96;61.53;103394.59;5046948;28;20036;-83
2022/03/27 00:04:38;;;;;;;0.10;0.10;;;;;;;13.98;60.96;103391.94;5050138;28;20029;-82
2022/03/27 00:07:05;;;;;;;0.10;0.10;;;;;;;13.98;61.20;103386.59;5048415;28;20515;-84
2022/03/27 00:09:31;;;;;;;0.10;0.10;;;;;;;13.98;60.47;103384.84;5051146;28;20520;-84
2022/03/27 00:11:57;;;;;;;0.05;0.05;;;;;;;14.02;59.99;103383.09;5047868;28;20024;-83
2022/03/27 00:14:23;;;;;;;0.00;0.00;;;;;;;13.97;61.42;103385.72;5050328;28;20020;-83
2022/03/27 00:16:49;;;;;;;0.05;0.05;;;;;;;13.95;61.25;103381.25;5050788;28;20022;-83
2022/03/27 00:19:16;;;;;;;0.10;0.10;;;;;;;13.94;60.98;103384.81;5048085;28;20437;-83
2022/03/27 00:21:44;;;;;;;0.10;0.10;;;;;;;13.91;60.32;103378.56;5048374;28;20040;-82
2022/03/27 00:24:10;;;;;;;0.10;0.10;;;;;;;13.90;61.10;103384.75;5051730;28;20029;-83
2022/03/27 00:26:36;;;;;;;0.00;0.00;;;;;;;13.89;60.38;103383.00;5051117;28;20021;-84
2022/03/27 00:29:02;;;;;;;0.10;0.10;;;;;;;13.82;61.62;103378.50;5054745;28;20053;-84
2022/03/27 00:31:35;;;;;;;0.08;0.08;;;;;;;13.87;60.88;103378.56;5052780;28;20025;-84
2022/03/27 00:34:02;;;;;;;0.10;0.10;;;;;;;13.88;60.52;103385.63;5054813;28;20028;-84
2022/03/27 00:36:28;;;;;;;0.05;0.05;;;;;;;13.85;60.87;103380.28;5053567;28;20515;-83
2022/03/27 00:38:55;;;;;;;0.20;0.20;;;;;;;13.82;61.24;103381.16;5051434;28;20032;-84
2022/03/27 00:41:23;;;;;;;0.10;0.10;;;;;;;13.82;60.85;103382.94;5041285;28;20033;-83
2022/03/27 00:43:49;;;;;;;0.10;0.10;;;;;;;13.81;60.51;103382.03;5044037;28;20527;-82
2022/03/27 00:46:16;;;;;;;0.32;0.32;;;;;;;13.81;60.39;103384.72;5049745;28;20025;-83
2022/03/27 00:48:42;;;;;;;0.10;0.10;;;;;;;13.79;60.61;103378.47;5054941;28;20032;-83
2022/03/27 00:51:09;;;;;;;0.00;0.00;;;;;;;13.81;60.56;103384.72;5042444;28;20039;-82
2022/03/27 00:53:35;;;;;;;0.10;0.10;;;;;;;13.79;61.09;103383.78;5041893;28;20072;-84
2022/03/27 00:56:01;;;;;;;0.00;0.00;;;;;;;13.81;60.28;103378.50;5042236;28;20030;-84
2022/03/27 00:58:27;;;;;;;0.05;0.05;;;;;;;13.79;60.15;103381.13;5041228;28;20409;-83
2022/03/27 01:01:03;;;;;;;0.00;0.00;;;;;;;13.80;60.25;103382.91;5041274;28;20108;-82
2022/03/27 01:03:31;;;;;;;0.00;0.00;;;;;;;13.74;60.25;103382.88;5041358;28;20029;-84
2022/03/27 01:05:57;;;;;;;0.08;0.08;;;;;;;13.71;60.56;103383.75;5041054;28;20030;-83
2022/03/27 01:11:16;;;;;;;0.10;0.10;;;;;;;13.69;60.71;103373.97;5041891;28;20041;-83
2022/03/27 01:16:47;;;;;;;0.10;0.10;;;;;;;13.67;60.23;103378.38;5071460;28;20406;-81
2022/03/27 01:19:14;;;;;;;0.10;0.10;;;;;;;13.56;60.90;103379.19;5071822;28;20039;-80
2022/03/27 01:21:44;;;;;;;0.00;0.00;;;;;;;13.52;60.67;103376.47;5071557;28;20051;-80
2022/03/27 01:24:11;;;;;;;0.00;0.00;;;;;;;13.52;60.89;103376.47;5071614;28;20025;-81
2022/03/27 01:26:39;;;;;;;0.10;0.10;;;;;;;13.52;60.59;103377.41;5072776;28;20028;-81
2022/03/27 01:29:06;;;;;;;0.03;0.03;;;;;;;13.51;60.68;103367.63;5072701;28;20481;-80
2022/03/27 01:31:33;;;;;;;0.10;0.10;;;;;;;13.50;60.24;103373.81;5070992;28;20025;-80
2022/03/27 01:34:00;;;;;;;0.10;0.10;;;;;;;13.42;60.45;103372.84;5073155;28;20035;-80
2022/03/27 01:36:34;;;;;;;0.10;0.10;;;;;;;13.35;60.42;103368.34;5069845;28;20033;-80
2022/03/27 01:39:02;;;;;;;0.08;0.08;;;;;;;13.31;61.04;103369.16;5069389;28;20426;-79
2022/03/27 01:41:28;;;;;;;0.52;0.52;;;;;;;13.22;61.37;103373.53;5070175;28;20024;-79
2022/03/27 01:43:55;;;;;;;0.10;0.10;;;;;;;13.17;61.17;103363.72;5069951;28;20402;-79
2022/03/27 01:46:21;;;;;;;0.00;0.00;;;;;;;13.11;61.51;103364.56;5070290;28;20100;-81
2022/03/27 01:48:48;;;;;;;0.57;0.57;;;;;;;13.08;61.02;103365.44;5082709;28;20035;-81
2022/03/27 01:51:14;;;;;;;0.10;0.10;;;;;;;13.05;61.14;103369.81;5079153;28;20111;-80
2022/03/27 01:53:41;;;;;;;0.00;0.00;;;;;;;13.00;61.05;103364.44;5072412;28;20074;-81
2022/03/27 01:56:09;;;;;;;0.08;0.08;;;;;;;12.98;61.47;103367.97;5072105;28;20032;-82
2022/03/27 01:58:38;;;;;;;0.03;0.03;;;;;;;12.98;61.60;103373.28;5072134;28;20285;-80
2022/03/27 02:01:06;;;;;;;0.85;0.40;;;;;;;12.93;61.27;103366.16;5071252;28;20043;-80
2022/03/27 02:03:32;;;;;;;0.40;0.40;;;;;;;12.88;61.72;103366.97;5071787;28;20031;-81
2022/03/27 02:05:58;;;;;;;0.10;0.10;;;;;;;12.85;61.89;103362.53;5071593;28;20043;-81
2022/03/27 02:08:24;;;;;;;0.10;0.10;;;;;;;12.86;61.66;103364.31;5071793;28;20024;-80
2022/03/27 02:10:51;;;;;;;0.17;0.17;;;;;;;12.84;61.49;103374.03;5070537;28;20025;-80
2022/03/27 02:13:19;;;;;;;0.10;0.10;;;;;;;12.83;61.76;103366.03;5071631;28;20118;-80
2022/03/27 02:15:48;;;;;;;0.90;0.47;;;;;;;12.84;61.62;103368.72;5071023;28;20021;-80
2022/03/27 02:18:16;;;;;;;0.13;0.13;;;;;;;12.77;62.05;103374.84;5071207;28;20024;-80
2022/03/27 02:20:44;;;;;;;0.00;0.00;;;;;;;12.74;62.93;103381.00;5070344;28;20032;-80
2022/03/27 02:23:11;;;;;;;0.17;0.17;;;;;;;12.77;61.99;103383.72;5070924;28;20044;-80
2022/03/27 02:25:38;;;;;;;0.20;0.20;;;;;;;12.78;61.63;103368.63;5069833;28;20021;-81
2022/03/27 02:28:05;;;;;;;0.10;0.10;;;;;;;12.79;61.86;103365.13;5057706;28;20051;-80
2022/03/27 02:30:31;;;;;;;0.10;0.10;;;;;;;12.78;62.20;103371.31;5057757;28;20117;-80
2022/03/27 02:32:58;;;;;;;0.55;0.55;;;;;;;12.76;62.32;103354.41;5056950;28;20029;-80
2022/03/27 02:35:24;;;;;;;0.10;0.10;;;;;;;12.74;61.95;103358.84;5057357;28;20121;-80
2022/03/27 02:37:51;;;;;;;1.00;0.43;;;;;;;12.70;62.36;103363.25;5058187;28;20091;-80
2022/03/27 02:40:18;;;;;;;0.00;0.00;;;;;;;12.74;61.70;103359.72;5058447;28;20394;-80
2022/03/27 02:42:44;;;;;;;0.10;0.10;;;;;;;12.74;62.30;103359.72;5057867;28;20079;-80
2022/03/27 02:45:10;;;;;;;0.38;0.38;;;;;;;12.74;62.69;103361.50;5068802;28;20028;-80
2022/03/27 02:47:37;;;;;;;0.10;0.10;;;;;;;12.78;62.72;103350.94;5069021;28;20055;-80
2022/03/27 02:50:05;;;;;;;0.10;0.10;;;;;;;12.82;62.12;103364.25;5069063;28;20037;-80
2022/03/27 02:52:32;;;;;;;0.55;0.55;;;;;;;12.85;60.87;103356.31;5070418;28;20029;-82
2022/03/27 02:54:59;;;;;;;0.00;0.00;;;;;;;12.81;61.83;103355.38;5070431;28;20028;-80
2022/03/27 02:57:26;;;;;;;0.10;0.10;;;;;;;12.78;62.05;103358.00;5066021;28;20052;-81
2022/03/27 02:59:52;;;;;;;0.73;0.73;;;;;;;12.79;60.59;103358.00;5057125;28;20028;-80
2022/03/27 03:02:19;;;;;;;0.00;0.00;;;;;;;12.69;61.81;103356.13;5057086;28;20035;-81
2022/03/27 03:04:46;;;;;;;0.05;0.05;;;;;;;12.68;61.65;103350.81;5057325;28;20513;-81
2022/03/27 03:07:14;;;;;;;0.00;0.00;;;;;;;12.67;62.03;103351.66;5057045;28;20078;-81
2022/03/27 03:09:41;;;;;;;1.00;0.82;;;;;;;12.70;61.86;103357.03;5056572;28;20052;-81
2022/03/27 03:12:08;;;;;;;0.10;0.10;;;;;;;12.67;61.84;103355.22;5056112;28;20032;-80
2022/03/27 03:14:34;;;;;;;0.28;0.28;;;;;;;12.66;61.49;103349.88;5056404;28;20089;-80
2022/03/27 03:17:01;;;;;;;0.47;0.47;;;;;;;12.59;61.37;103349.81;5056513;28;20037;-80
2022/03/27 03:19:29;;;;;;;0.47;0.47;;;;;;;12.60;61.22;103350.72;5056211;28;20532;-79
2022/03/27 03:21:55;;;;;;;1.05;0.98;;;;;;;12.57;61.84;103354.22;5055103;28;20079;-80
2022/03/27 03:24:23;;;;;;;0.52;0.52;;;;;;;12.45;61.55;103352.31;5055926;28;20499;-80
2022/03/27 03:26:50;;;;;;;0.10;0.10;;;;;;;12.42;62.22;103351.38;5056334;28;20482;-80
2022/03/27 03:29:16;;;;;;;0.03;0.03;;;;;;;12.44;62.11;103346.97;5056151;28;20029;-80
2022/03/27 03:31:42;;;;;;;0.10;0.10;;;;;;;12.46;61.62;103358.50;5055966;28;20029;-80
2022/03/27 03:34:08;;;;;;;0.30;0.30;;;;;;;12.46;61.84;103348.78;5056263;28;20074;-80
2022/03/27 03:36:34;;;;;;;0.10;0.10;;;;;;;12.46;61.71;103347.88;5056845;28;20068;-80
2022/03/27 03:39:01;;;;;;;0.05;0.05;;;;;;;12.49;61.08;103347.91;5055432;28;20099;-80
2022/03/27 03:41:27;;;;;;;0.00;0.00;;;;;;;12.48;61.23;103350.56;5055083;28;20103;-79
2022/03/27 03:43:53;;;;;;;0.10;0.10;;;;;;;12.46;62.40;103347.88;5053603;28;20036;-79
2022/03/27 03:46:20;;;;;;;0.00;0.00;;;;;;;12.46;62.12;103348.78;5053782;28;20025;-79
2022/03/27 03:48:46;;;;;;;0.00;0.00;;;;;;;12.43;62.33;103355.81;5054219;28;20025;-79
2022/03/27 03:51:12;;;;;;;0.10;0.10;;;;;;;12.42;61.89;103354.03;5053285;28;20057;-80
2022/03/27 03:53:38;;;;;;;0.10;0.10;;;;;;;12.44;61.11;103341.66;5053486;28;20029;-79
2022/03/27 03:56:05;;;;;;;0.10;0.10;;;;;;;12.43;61.91;103337.22;5053913;28;20036;-80
2022/03/27 03:58:32;;;;;;;0.55;0.55;;;;;;;12.40;61.85;103342.47;5055647;28;20025;-79
2022/03/27 04:00:58;;;;;;;0.28;0.28;;;;;;;12.37;62.04;103337.13;5054836;28;20544;-79
2022/03/27 04:03:24;;;;;;;0.10;0.10;;;;;;;12.38;62.04;103346.91;5054082;28;20033;-79
2022/03/27 04:05:50;;;;;;;0.10;0.10;;;;;;;12.41;61.63;103344.25;5054893;28;20505;-80
2022/03/27 04:08:18;;;;;;;0.00;0.00;;;;;;;12.39;62.33;103340.72;5057228;28;20029;-80
2022/03/27 04:10:44;;;;;;;0.10;0.10;;;;;;;12.38;61.43;103350.44;5066187;28;20025;-79
2022/03/27 04:13:10;;;;;;;0.10;0.10;;;;;;;12.35;61.18;103345.09;5068118;28;20052;-80
2022/03/27 04:15:38;;;;;;;0.05;0.05;;;;;;;12.33;61.72;103345.94;5065399;28;20036;-80
2022/03/27 04:18:05;;;;;;;0.10;0.10;;;;;;;12.30;61.95;103346.81;5056445;28;20040;-80
2022/03/27 04:20:31;;;;;;;0.00;0.00;;;;;;;12.29;61.17;103345.91;5055758;28;20029;-80
2022/03/27 04:22:57;;;;;;;0.05;0.05;;;;;;;12.24;61.99;103350.25;5055240;28;20044;-80
2022/03/27 04:25:23;;;;;;;0.00;0.00;;;;;;;12.23;62.27;103348.47;5055962;28;20029;-80
2022/03/27 04:27:49;;;;;;;0.75;0.75;;;;;;;12.25;62.00;103341.41;5055419;28;20024;-80
2022/03/27 04:30:16;;;;;;;0.40;0.40;;;;;;;12.24;61.85;103352.91;5055395;28;20033;-80
2022/03/27 04:32:42;;;;;;;0.10;0.10;;;;;;;12.27;61.56;103346.75;5055101;28;20040;-80
2022/03/27 04:35:09;;;;;;;0.10;0.10;;;;;;;12.26;61.97;103351.19;5055717;28;20108;-80
2022/03/27 04:37:41;;;;;;;0.00;0.00;;;;;;;12.25;61.33;103353.81;5054770;28;20071;-79
2022/03/27 04:40:09;;;;;;;1.85;0.85;;;;;;;12.22;61.29;103359.09;5054825;28;20044;-80
2022/03/27 04:42:35;;;;;;;0.10;0.10;;;;;;;12.16;61.59;103359.88;5054529;28;20554;-80
2022/03/27 04:45:02;;;;;;;0.50;0.50;;;;;;;12.15;61.46;103358.13;5055324;28;20128;-80
2022/03/27 04:47:28;;;;;;;0.10;0.10;;;;;;;12.16;61.71;103359.00;5054970;28;20036;-80
2022/03/27 04:49:54;;;;;;;0.10;0.10;;;;;;;12.11;60.93;103356.28;5054676;28;20486;-80
2022/03/27 04:52:20;;;;;;;0.85;0.85;;;;;;;12.11;60.98;103362.50;5054115;28;20033;-80
2022/03/27 04:54:46;;;;;;;0.20;0.20;;;;;;;12.08;61.81;103372.19;5054649;28;20083;-80
2022/03/27 04:57:12;;;;;;;0.10;0.10;;;;;;;12.08;61.56;103364.22;5055012;28;20029;-80
2022/03/27 04:59:38;;;;;;;0.00;0.00;;;;;;;12.08;61.37;103366.88;5054306;28;20025;-80
2022/03/27 05:02:05;;;;;;;0.10;0.10;;;;;;;12.04;61.53;103362.41;5054086;28;20033;-80
2022/03/27 05:04:31;;;;;;;0.40;0.30;;;;;;;12.03;61.38;103366.81;5054763;28;20035;-80
2022/03/27 05:06:58;;;;;;;0.10;0.10;;;;;;;12.03;61.20;103363.25;5055148;28;20048;-80
2022/03/27 05:09:24;;;;;;;0.00;0.00;;;;;;;12.06;61.40;103368.59;5054590;28;20490;-80
2022/03/27 05:11:50;;;;;;;0.25;0.25;;;;;;;12.07;61.36;103370.41;5053959;28;20033;-80
2022/03/27 05:14:16;;;;;;;0.10;0.10;;;;;;;11.99;60.74;103367.63;5054481;28;20053;-80
2022/03/27 05:16:42;;;;;;;0.38;0.38;;;;;;;12.00;60.89;103371.19;5055080;28;20029;-80
2022/03/27 05:19:08;;;;;;;0.32;0.32;;;;;;;11.94;60.92;103364.88;5054953;28;20029;-80
2022/03/27 05:21:36;;;;;;;0.17;0.17;;;;;;;11.96;61.11;103364.91;5053955;28;20032;-80
2022/03/27 05:24:03;;;;;;;0.10;0.10;;;;;;;11.98;61.32;103368.50;5054589;28;20124;-80
2022/03/27 05:26:29;;;;;;;0.13;0.13;;;;;;;11.93;60.64;103363.09;5067434;22;20033;-76
2022/03/27 05:28:55;;;;;;;0.30;0.30;;;;;;;11.94;60.74;103370.19;5050598;28;20491;-76
2022/03/27 05:31:22;;;;;;;0.10;0.10;;;;;;;11.91;60.73;103371.91;5068278;28;20166;-76
2022/03/27 05:33:48;;;;;;;0.70;0.70;;;;;;;11.87;60.90;103368.31;5070830;28;20432;-76
2022/03/27 05:36:14;;;;;;;0.10;0.10;;;;;;;11.80;60.90;103371.72;5070377;28;20033;-75
2022/03/27 05:38:41;;;;;;;0.10;0.10;;;;;;;11.82;61.26;103373.56;5069920;28;20032;-75
2022/03/27 05:41:09;;;;;;;0.20;0.20;;;;;;;11.87;60.79;103367.41;5069631;28;20497;-76
2022/03/27 05:43:36;;;;;;;0.52;0.52;;;;;;;11.90;60.85;103367.44;5070224;28;20440;-76
2022/03/27 05:46:02;;;;;;;0.00;0.00;;;;;;;11.90;61.22;103368.38;5070478;28;20060;-76
2022/03/27 05:48:28;;;;;;;0.00;0.00;;;;;;;11.90;61.23;103371.03;5070067;28;20056;-75
2022/03/27 05:50:54;;;;;;;0.73;0.73;;;;;;;11.92;60.52;103371.91;5069000;28;20035;-75
2022/03/27 05:53:21;;;;;;;2.67;0.57;;;;;;;11.90;60.64;103368.38;5070561;28;20033;-76
2022/03/27 05:55:47;;;;;;;0.30;0.30;;;;;;;11.90;60.49;103376.34;5069894;28;20108;-75
2022/03/27 05:58:14;;;;;;;0.10;0.10;;;;;;;11.88;60.40;103374.53;5069946;28;20043;-75
2022/03/27 06:00:41;;;;;;;0.10;0.10;;;;;;;11.85;60.08;103370.06;5069632;28;20089;-76
2022/03/27 06:03:07;;;;;;;0.25;0.25;;;;;;;11.84;60.77;103373.59;5073053;28;20029;-75
2022/03/27 06:05:33;;;;;;;0.32;0.32;;;;;;;11.84;61.03;103377.97;5073820;28;20020;-75
2022/03/27 06:08:00;;;;;;;0.32;0.32;;;;;;;11.86;60.57;103381.56;5073981;28;20474;-75
2022/03/27 06:10:31;;;;;;;0.00;0.00;;;;;;;11.86;60.35;103381.56;5073638;28;20029;-77
2022/03/27 06:12:57;;;;;;;0.28;0.28;;;;;;;11.86;60.27;103386.88;5073347;28;20150;-76
2022/03/27 06:15:25;;;;;;;0.35;0.35;;;;;;;11.84;60.52;103386.88;5073371;28;20029;-76
2022/03/27 06:17:52;;;;;;;0.10;0.10;;;;;;;11.86;60.41;103387.75;5073323;28;20028;-76
2022/03/27 06:20:21;;;;;;;0.20;0.20;;;;;;;11.88;60.73;103386.03;5073537;28;20024;-77
2022/03/27 06:22:48;;;;;;;0.00;0.00;;;;;;;11.86;60.10;103392.19;5072980;28;20032;-75
2022/03/27 06:25:17;;;;;;;0.00;0.00;;;;;;;11.83;59.95;103393.03;5074103;28;20033;-77
2022/03/27 06:27:44;;;;;;;0.10;0.10;;;;;;;11.80;59.71;103398.28;5073769;28;20036;-76
2022/03/27 06:30:15;;;;;;;0.10;0.10;;;;;;;11.74;59.76;103392.88;5073565;28;20512;-77
2022/03/27 06:32:42;;;;;;;1.55;0.32;;;;;;;11.71;59.97;103392.84;5072667;28;20024;-77
2022/03/27 06:35:11;;;;;;;0.03;0.03;;;;;;;11.69;59.66;103399.88;5073335;28;20029;-77
2022/03/27 06:37:38;;;;;;;0.10;0.10;;;;;;;11.69;59.84;103399.88;5073467;28;20032;-77
2022/03/27 06:40:05;;;;;;;0.00;0.00;;;;;;;11.69;59.48;103397.22;5073253;28;20040;-77
2022/03/27 06:42:32;;;;;;;11.00;1.40;;;;;;;11.58;59.51;103397.94;5072481;28;20036;-76
2022/03/27 06:44:58;;;;;;;0.22;0.22;;;;;;;11.48;59.35;103396.00;5072962;28;20474;-76
2022/03/27 06:47:27;;;;;;;0.10;0.10;;;;;;;11.40;59.45;103400.28;5073033;28;20032;-77
2022/03/27 06:49:55;;;;;;;0.10;0.10;;;;;;;11.32;59.34;103397.50;5073081;28;20032;-76
2022/03/27 06:52:22;;;;;;;0.00;0.00;;;;;;;11.23;59.54;103400.88;5072325;28;20025;-76
2022/03/27 06:54:49;;;;;;;0.00;0.00;;;;;;;11.12;59.93;103402.44;5073183;28;20040;-77
2022/03/27 06:57:16;;;;;;;0.10;0.10;;;;;;;11.05;60.52;103390.81;5072957;28;20033;-77
2022/03/27 07:05:15;;;;;;;0.00;0.00;;;;;;;10.89;60.63;103400.25;5072912;28;20090;-77
2022/03/27 07:07:42;;;;;;;0.32;0.32;;;;;;;10.86;60.86;103402.81;5072489;28;20446;-77
2022/03/27 07:10:10;;;;;;;0.10;0.10;;;;;;;10.86;60.42;103400.19;5072790;28;20040;-76
2022/03/27 07:12:36;;;;;;;0.77;0.77;;;;;;;10.88;60.34;103397.53;5071623;28;20043;-76
2022/03/27 07:15:02;;;;;;;0.00;0.00;;;;;;;10.93;60.80;103401.19;5072448;28;20025;-76
2022/03/27 07:17:29;;;;;;;0.00;0.00;;;;;;;10.99;60.48;103396.91;5072665;28;20036;-75
2022/03/27 07:19:55;;;;;;;0.10;0.10;;;;;;;11.06;60.52;103397.03;5072588;28;20067;-76
2022/03/27 07:22:21;;;;;;;0.10;0.10;;;;;;;11.08;60.83;103397.94;5072031;28;20036;-76
2022/03/27 07:24:47;;;;;;;0.10;0.10;;;;;;;11.07;60.39;103396.16;5072495;28;20020;-76
2022/03/27 07:27:13;;;;;;;0.00;0.00;;;;;;;11.09;59.42;103391.75;5072421;28;20029;-77
2022/03/27 07:29:39;;;;;;;0.10;0.10;;;;;;;11.08;59.93;103392.63;5072642;28;20047;-76
2022/03/27 07:32:06;;;;;;;0.20;0.20;;;;;;;11.10;60.27;103390.91;5071717;28;20094;-76
2022/03/27 07:34:35;;;;;;;0.20;0.20;;;;;;;11.17;60.12;103392.81;5071969;28;20031;-77
2022/03/27 07:37:02;;;;;;;0.10;0.10;;;;;;;11.19;59.49;103388.44;5072190;28;20052;-75
2022/03/27 07:39:29;;;;;;;0.10;0.10;;;;;;;11.19;60.01;103385.78;5072594;28;20024;-77
2022/03/27 07:41:55;;;;;;;0.10;0.10;;;;;;;11.26;59.48;103390.31;5071567;28;20042;-78
2022/03/27 07:44:21;;;;;;;0.10;0.10;;;;;;;11.32;59.68;103390.41;5074204;28;20029;-76
2022/03/27 07:46:49;;;;;;;0.30;0.30;;;;;;;11.37;59.41;103381.66;5073563;28;20116;-76
2022/03/27 07:49:16;;;;;;;0.30;0.30;;;;;;;11.36;59.24;103388.72;5073608;28;20040;-77
2022/03/27 07:51:43;;;;;;;1.10;0.85;;;;;;;11.39;59.58;103386.13;5072929;28;20028;-77
2022/03/27 07:54:09;;;;;;;0.10;0.10;;;;;;;11.41;59.00;103389.69;5071520;28;20029;-77
2022/03/27 07:56:36;;;;;;;0.10;0.10;;;;;;;11.48;59.33;103388.94;5071776;28;20028;-77
2022/03/27 07:59:02;;;;;;;0.10;0.10;;;;;;;11.56;59.14;103382.88;5071856;28;20032;-77
2022/03/27 08:01:28;;;;;;;0.10;0.10;;;;;;;11.62;59.11;103391.81;5071494;28;20090;-78
2022/03/27 08:03:56;;;;;;;0.05;0.05;;;;;;;11.67;58.93;103391.91;5072600;28;20052;-77
2022/03/27 08:06:23;;;;;;;0.00;0.00;;;;;;;11.74;58.18;103395.53;5072070;28;20413;-77
2022/03/27 08:08:49;;;;;;;0.00;0.00;;;;;;;11.74;57.95;103400.84;5071787;28;20147;-77
2022/03/27 08:11:16;;;;;;;0.00;0.00;;;;;;;11.79;57.20;103396.53;5071097;28;20054;-75
2022/03/27 08:13:43;;;;;;;0.75;0.75;;;;;;;11.85;56.99;103401.94;5071453;28;20663;-77
2022/03/27 08:16:09;;;;;;;0.10;0.10;;;;;;;11.93;56.44;103400.28;5071525;28;20436;-77
2022/03/27 08:18:36;;;;;;;0.80;0.80;;;;;;;12.08;55.15;103399.66;5071843;28;20037;-77
2022/03/27 08:21:02;;;;;;;0.00;0.00;;;;;;;12.17;56.17;103398.88;5070813;28;20030;-77
2022/03/27 08:23:28;;;;;;;0.10;0.10;;;;;;;12.29;55.75;103399.06;5071775;28;20025;-77
2022/03/27 08:28:42;;;;;;;0.10;0.10;;;;;;;12.42;55.40;103400.13;5071967;28;20135;-78
2022/03/27 08:31:08;;;;;;;0.40;0.40;;;;;;;12.43;53.79;103398.38;5070708;28;20070;-76
2022/03/27 08:33:34;;;;;;;0.10;0.10;;;;;;;12.53;53.64;103386.97;5071262;28;20036;-76
2022/03/27 08:36:00;;;;;;;0.10;0.10;;;;;;;12.61;52.60;103395.03;5071198;28;20359;-76
2022/03/27 08:38:29;;;;;;;0.10;0.10;;;;;;;12.68;53.19;103399.56;5071738;28;20075;-77
2022/03/27 08:40:55;;;;;;;0.65;0.65;;;;;;;12.75;52.00;103395.22;5069969;28;20024;-75
2022/03/27 08:43:22;;;;;;;0.10;0.10;;;;;;;12.82;50.20;103394.41;5071290;28;20033;-77
2022/03/27 08:45:48;;;;;;;0.10;0.10;;;;;;;12.94;51.14;103391.88;5071172;28;20033;-77
2022/03/27 08:48:15;;;;;;;0.40;0.40;;;;;;;12.98;50.77;103392.81;5070829;28;20036;-77
2022/03/27 08:53:38;;;;;;;0.03;0.03;;;;;;;13.20;50.44;103390.38;5109602;27;20343;-76
2022/03/27 08:56:06;;;;;;;0.00;0.00;;;;;;;13.32;51.14;103386.94;5109025;28;20036;-76
2022/03/27 08:58:41;;;;;;;0.10;0.10;;;;;;;13.48;50.30;103386.22;5108572;28;20020;-77
2022/03/27 09:01:08;;;;;;;0.40;0.40;;;;;;;13.55;50.19;103393.38;5107668;28;20023;-77
2022/03/27 09:03:35;;;;;;;0.10;0.10;;;;;;;13.63;49.32;103384.56;5109017;28;20059;-77
2022/03/27 09:06:01;;;;;;;0.00;0.00;;;;;;;13.74;49.47;103380.22;5108760;28;20054;-77
2022/03/27 09:08:30;;;;;;;0.08;0.08;;;;;;;13.79;49.58;103381.13;5108373;28;20028;-77
2022/03/27 09:10:56;;;;;;;0.10;0.10;;;;;;;13.89;49.46;103383.00;5107651;28;20034;-76
2022/03/27 09:13:23;;;;;;;0.10;0.10;;;;;;;13.98;47.58;103381.25;5108277;28;20031;-77
2022/03/27 09:16:07;;;;;;;0.00;0.00;;;;;;;14.15;49.25;103376.91;5108715;28;20027;-77
2022/03/27 09:18:57;;;;;;;0.40;0.40;;;;;;;14.23;47.85;103379.63;5109107;28;20023;-75
2022/03/27 09:21:26;;;;;;;0.10;0.10;;;;;;;14.26;48.89;103370.78;5107147;28;20047;-76
2022/03/27 09:23:55;;;;;;;0.10;0.10;;;;;;;14.38;48.54;103379.72;5108234;28;20030;-77
2022/03/27 09:26:21;;;;;;;0.00;0.00;;;;;;;14.45;47.44;103372.63;5108318;28;20114;-77
2022/03/27 09:28:50;;;;;;;0.17;0.17;;;;;;;14.56;48.21;103375.34;5108376;28;20512;-77
2022/03/27 09:34:00;;;;;;;0.10;0.10;;;;;;;14.74;47.75;103363.84;5108800;27;20384;-77
2022/03/27 09:44:22;;;;;;;0.00;0.00;;;;;;;15.08;46.88;103363.03;5116032;27;1201628;-76
2022/03/27 09:49:44;;;;;;;0.00;0.00;;;;;;;15.29;43.59;103359.50;5108514;27;20392;-74
2022/03/27 09:52:13;;;;;;;0.00;0.00;;;;;;;15.34;43.83;103360.44;5107827;28;20032;-75
2022/03/27 09:57:31;;;;;;;0.00;0.00;;;;;;;15.54;44.17;103352.41;5113894;27;1240961;-76
2022/03/27 10:00:12;;;;;;;0.10;0.10;;;;;;;15.63;43.81;103356.84;5120625;27;20041;-76
2022/03/27 10:02:38;;;;;;;0.00;0.00;;;;;;;15.72;43.42;103354.16;5108032;28;20020;-77
2022/03/27 10:05:07;;;;;;;0.00;0.00;;;;;;;15.81;43.51;103358.59;5108546;28;20027;-75
2022/03/27 10:07:37;;;;;;;0.15;0.15;;;;;;;15.88;43.26;103355.06;5108275;28;20027;-76
2022/03/27 10:10:06;;;;;;;0.15;0.15;;;;;;;15.88;42.15;103351.50;5108373;28;20054;-76
2022/03/27 10:12:37;;;;;;;0.00;0.00;;;;;;;15.97;42.73;103348.78;5108139;28;20031;-77
2022/03/27 10:15:07;;;;;;;0.00;0.00;;;;;;;16.06;42.12;103351.41;5108710;28;20077;-76
2022/03/27 10:17:37;;;;;;;0.00;0.00;;;;;;;16.20;42.91;103342.47;5108610;28;20440;-76
2022/03/27 10:22:49;;;;;;;0.20;0.20;;;;;;;16.38;41.87;103338.84;5107973;27;20391;-76
2022/03/27 10:25:17;;;;;;;0.00;0.00;;;;;;;16.47;41.71;103333.44;5108527;28;20043;-75
2022/03/27 10:27:46;;;;;;;0.10;0.10;;;;;;;16.55;42.17;103336.06;5109117;28;20031;-75
2022/03/27 10:30:15;;;;;;;0.00;0.00;;;;;;;16.61;42.67;103333.34;5108860;28;20059;-77
2022/03/27 10:32:42;;;;;;;0.10;0.10;;;;;;;16.64;42.10;103334.22;5108460;28;20081;-75
2022/03/27 10:35:37;;;;;;;0.00;0.00;;;;;;;16.74;41.01;103329.72;5108926;28;20397;-77
2022/03/27 10:38:31;;;;;;;0.00;0.00;;;;;;;16.80;41.46;103329.69;5108957;28;20100;-77
2022/03/27 10:44:03;;;;;;;0.10;0.10;;;;;;;16.99;41.16;103316.19;5108988;27;20391;-78
2022/03/27 10:46:29;;;;;;;0.05;0.05;;;;;;;16.95;38.73;103314.47;5107104;28;20557;-78
2022/03/27 10:49:12;;;;;;;0.13;0.13;;;;;;;17.12;39.04;103315.22;5109051;28;20028;-78
2022/03/27 10:51:41;;;;;;;0.00;0.00;;;;;;;17.13;40.05;103321.44;5087013;28;20116;-77
2022/03/27 10:54:15;;;;;;;0.90;0.43;;;;;;;17.20;39.32;103317.81;5085874;28;20048;-78
2022/03/27 10:56:44;;;;;;;1.33;1.23;;;;;;;17.25;39.99;103315.13;5088374;28;20075;-79
2022/03/27 10:59:17;;;;;;;0.08;0.08;;;;;;;17.29;38.94;103307.00;5088393;28;20413;-78
2022/03/27 11:04:35;;;;;;;0.00;0.00;;;;;;;17.51;39.75;103305.91;5109132;27;20392;-78
2022/03/27 11:09:53;;;;;;;0.00;0.00;;;;;;;17.65;40.04;103309.38;5099700;27;20389;-78
2022/03/27 11:17:43;;;;;;;0.23;0.23;;;;;;;17.70;40.55;103301.28;5105588;27;1199089;-78
2022/03/27 11:20:31;;;;;;;0.20;0.20;;;;;;;17.90;39.79;103293.88;5108721;28;20070;-78
2022/03/27 11:22:59;;;;;;;0.00;0.00;;;;;;;18.02;39.97;103292.00;5097328;28;20035;-77
2022/03/27 11:28:12;;;;;;;0.05;0.05;;;;;;;18.10;39.33;103285.63;5123797;22;20384;-79
2022/03/27 11:33:30;;;;;;;0.00;0.00;;;;;;;18.26;39.33;103286.31;5113178;27;1189154;-80
2022/03/27 11:41:26;;;;;;;0.00;0.00;;;;;;;18.37;38.72;103271.88;5083906;27;20741;-81
2022/03/27 11:43:56;;;;;;;0.00;0.00;;;;;;;18.38;38.14;103269.16;5082224;28;20051;-80
2022/03/27 11:46:25;;;;;;;0.10;0.10;;;;;;;18.39;36.77;103268.25;5083504;28;20016;-81
2022/03/27 11:48:56;;;;;;;0.08;0.08;;;;;;;18.50;37.51;103261.84;5083004;28;20405;-81
2022/03/27 11:51:24;;;;;;;0.00;0.00;;;;;;;18.53;37.54;103257.31;5080988;28;20393;-81
2022/03/27 11:53:53;;;;;;;0.00;0.00;;;;;;;18.56;37.36;103259.94;5083365;28;20104;-81
2022/03/27 11:56:20;;;;;;;0.10;0.10;;;;;;;18.62;37.20;103261.66;5084885;28;20044;-80
2022/03/27 11:59:07;;;;;;;0.00;0.00;;;;;;;18.77;37.01;103265.91;5084716;28;20062;-81
2022/03/27 12:01:34;;;;;;;0.10;0.10;;;;;;;18.74;34.24;103249.81;5083372;28;20028;-80
2022/03/27 12:04:00;;;;;;;0.10;0.10;;;;;;;18.89;35.19;103252.28;5082621;28;20112;-81
2022/03/27 12:06:28;;;;;;;0.00;0.00;;;;;;;18.96;36.14;103255.75;5083297;28;20024;-80
2022/03/27 12:08:56;;;;;;;0.00;0.00;;;;;;;19.10;36.27;103241.22;5083815;28;20020;-81
2022/03/27 12:11:25;;;;;;;0.00;0.00;;;;;;;19.22;35.27;103243.69;5084648;28;20043;-81
2022/03/27 12:13:52;;;;;;;0.00;0.00;;;;;;;19.30;35.70;103238.16;5084275;28;20024;-81
2022/03/27 12:16:21;;;;;;;0.03;0.03;;;;;;;19.31;35.37;103232.75;5085022;28;20077;-80
2022/03/27 12:18:47;;;;;;;0.00;0.00;;;;;;;19.33;35.73;103239.00;5085969;28;20362;-81
2022/03/27 12:21:15;;;;;;;0.00;0.00;;;;;;;19.39;35.36;103235.31;5083556;28;20028;-80
2022/03/27 12:23:47;;;;;;;0.00;0.00;;;;;;;19.42;34.15;103226.31;5083234;28;20055;-81
2022/03/27 12:29:42;;;;;;;0.10;0.10;;;;;;;19.63;33.76;103219.63;5086694;28;20028;-80
2022/03/27 12:34:47;;;;;;;0.50;0.50;;;;;;;19.75;33.45;103213.06;5066483;28;20072;-81